KHRJ

Harnett Regional Jetport Airport

Erwin, North Carolina, USA
METAR KHRJ 201935Z AUTO 00000KT 10SM -RA SCT033 BKN060 OVC085 21/17 A2982 RMK AO2 P0001 T02070174
Observed Flight Rules
Oct-20 @ 19:35 UTC (35 minutes ago) Visual Flight Rules
Visibility Clouds Conditions
10 miles
  • Scattered at 3,300' AGL
  • Broken at 6,000' AGL
  • Overcast at 8,500' AGL
  • Light Rain
Temperatures Readings Precipitation
Current 21°C / 70°F
Dewpoint 17°C / 63°F
Humidity 78%
Altimeter 29.82" Hg
Pressure 1010 hPa
Elevation 60
Current Rain 0.01
METAR KHRJ 201935Z AUTO 00000KT 10SM -RA SCT033 BKN060 OVC085 21/17 A2982 RMK AO2 P0001 T02070174
Observed Flight Rules
Oct-20 @ 19:35 UTC
(35 minutes ago)
VFR
Clouds
  • Scattered at 3,300' AGL
  • Broken at 6,000' AGL
  • Overcast at 8,500' AGL
Conditions
  • Light Rain
Temperature Dewpoint
21°C / 70°F 17°C / 63°F
Humidity Altimeter Pressure
78% 29.82" Hg 1010 hPa
Current Rain
0.01